Flight Track Log - Related Links

Times and Time Zones

All times are in EST time to prevent confusion due to time zone crossing. See the DAL109 flight status page for this flight to view local times or setup timezone preferences in your user account.

Time Position Orientation Groundspeed Altitude Reporting Facility
EST Latitude Longitude Course Direction KTS MPH feet Rate Location/Type
Mon 06:39:47 PM 33.6500 -84.4667 246° West 177 204 2,700  Level Atlanta TRACON
Mon 06:40:47 PM 33.6667 -84.5500 284° West 241 277 4,200 2,000 Climbing Atlanta TRACON
Mon 06:41:47 PM 33.6833 -84.6333 284° West 260 299 6,700 2,063 Climbing Atlanta TRACON
Mon 06:42:00 PM 33.6536 -84.8108 234° Southwest  Level FlightAware Approximate
Mon 06:43:00 PM 33.6043 -84.9390 246° West  Level FlightAware Approximate
Mon 06:43:59 PM 33.6811 -84.8128 269° West 277 319 10,800  Level Atlanta Center
Mon 06:44:00 PM 33.5560 -85.0678 246° West  Level FlightAware Approximate
Mon 06:44:59 PM 33.6367 -84.9194 243° Southwest 322 371 12,000  Level Atlanta Center
Mon 06:45:00 PM 33.5076 -85.1965 246° West  Level FlightAware Approximate
Mon 06:45:59 PM 33.5919 -85.0289 244° Southwest 358 412 14,300  Level Atlanta Center
Mon 06:46:59 PM 33.5700 -85.1483 258° West 370 426 16,300 1,850 Climbing Atlanta Center
Mon 06:47:59 PM 33.5481 -85.2700 258° West 378 435 18,000 1,700 Climbing Atlanta Center
Mon 06:48:59 PM 33.5236 -85.4044 258° West 378 435 19,700 1,550 Climbing Atlanta Center
Mon 06:49:59 PM 33.5014 -85.5286 258° West 378 435 21,100 1,300 Climbing Atlanta Center
Mon 06:50:59 PM 33.4769 -85.6528 257° West 384 442 22,300 1,200 Climbing Atlanta Center
Mon 06:51:59 PM 33.4542 -85.7842 258° West 396 456 23,500 1,000 Climbing Atlanta Center
Mon 06:52:59 PM 33.4317 -85.8983 257° West 396 456 24,300 850 Climbing Atlanta Center
Mon 06:53:59 PM 33.4067 -86.0319 257° West 403 464 25,200 1,000 Climbing Atlanta Center
Mon 06:54:59 PM 33.3833 -86.1683 258° West 415 478 26,300 1,050 Climbing Atlanta Center
Mon 06:55:59 PM 33.3561 -86.3019 256° West 415 478 27,300 1,050 Climbing Atlanta Center
Mon 06:56:59 PM 33.3239 -86.4503 255° West 415 478 28,400 950 Climbing Atlanta Center
Mon 06:57:59 PM 33.3053 -86.5567 258° West 415 478 29,200 1,050 Climbing Atlanta Center
Mon 06:58:59 PM 33.2792 -86.7075 258° West 420 483 30,500 1,050 Climbing Atlanta Center
Mon 06:59:59 PM 33.2553 -86.8383 258° West 412 474 31,300 750 Climbing Atlanta Center
Mon 07:00:59 PM 33.2231 -86.9639 253° West 407 468 32,000 350 Climbing Atlanta Center
Mon 07:01:59 PM 33.1614 -87.0958 241° Southwest 407 468 32,000  Level Atlanta Center
Mon 07:02:59 PM 33.1083 -87.2156 242° Southwest 412 474 32,000  Level Atlanta Center
Mon 07:03:59 PM 33.0531 -87.3325 241° Southwest 407 468 32,000  Level Atlanta Center
Mon 07:04:59 PM 33.0042 -87.4447 243° Southwest 407 468 32,000  Level Atlanta Center
Mon 07:06:54 PM 32.9044 -87.6661 242° Southwest 409 471 32,000  Level Memphis Center
Mon 07:07:56 PM 32.8508 -87.7850 242° Southwest 409 471 32,000  Level Memphis Center
Mon 07:08:57 PM 32.7872 -87.9222 241° Southwest 409 471 32,000  Level Memphis Center
Mon 07:09:59 PM 32.7339 -88.0403 242° Southwest 410 472 32,000  Level Memphis Center
Mon 07:11:01 PM 32.6800 -88.1575 241° Southwest 408 470 32,000  Level Memphis Center
Mon 07:12:02 PM 32.6258 -88.2747 241° Southwest 408 470 32,000  Level Memphis Center
Mon 07:13:04 PM 32.5708 -88.3914 241° Southwest 408 470 32,000  Level Memphis Center
Mon 07:14:06 PM 32.5172 -88.5075 241° Southwest 405 466 32,000 49 Level Memphis Center
Mon 07:15:07 PM 32.4506 -88.6489 241° Southwest 409 471 32,100 390 Climbing Memphis Center
Mon 07:16:09 PM 32.3961 -88.7653 241° Southwest 408 470 32,800 634 Climbing Memphis Center
Mon 07:17:10 PM 32.3286 -88.8731 233° Southwest 410 472 33,400 585 Climbing Memphis Center
Mon 07:18:12 PM 32.2522 -88.9764 229° Southwest 416 479 34,000 290 Climbing Memphis Center
Mon 07:19:14 PM 32.1786 -89.0792 230° Southwest 413 475 34,000  Level Memphis Center
Mon 07:20:15 PM 32.1028 -89.1808 229° Southwest 414 476 34,000  Level Memphis Center
Mon 07:21:17 PM 32.0133 -89.3050 230° Southwest 415 478 34,000  Level Memphis Center
Mon 07:22:19 PM 31.9383 -89.4069 229° Southwest 414 476 34,000  Level Memphis Center
Mon 07:23:20 PM 31.8633 -89.5089 229° Southwest 414 476 34,000  Level Memphis Center
Mon 07:24:22 PM 31.7883 -89.6106 229° Southwest 414 476 34,000  Level Memphis Center
Mon 07:25:24 PM 31.7136 -89.7108 229° Southwest 412 474 34,000  Level Memphis Center
Mon 07:26:31 PM 31.6272 -89.8286 229° Southwest 413 475 34,000 -47 Level Houston Center
Mon 07:27:33 PM 31.5519 -89.9289 229° Southwest 412 474 33,900 -48 Descending Houston Center
Mon 07:28:35 PM 31.4775 -90.0286 229° Southwest 410 472 33,900 48 Level Houston Center
Mon 07:29:37 PM 31.3869 -90.1497 229° Southwest 412 474 34,000 48 Climbing Houston Center
Mon 07:30:39 PM 31.3142 -90.2511 230° Southwest 411 473 34,000  Level Houston Center
Mon 07:31:42 PM 31.2611 -90.3675 242° Southwest 409 471 34,000 -48 Level Houston Center
Mon 07:32:44 PM 31.2147 -90.4867 246° West 406 467 33,900  Descending Houston Center
Mon 07:33:46 PM 31.1683 -90.6058 246° West 405 466 34,000 48 Climbing Houston Center
Mon 07:34:48 PM 31.1208 -90.7258 245° Southwest 408 470 34,000  Level Houston Center
Mon 07:35:50 PM 31.0625 -90.8686 245° Southwest 408 470 34,000  Level Houston Center
Mon 07:36:52 PM 31.0158 -90.9881 246° West 407 468 34,000 -48 Level Houston Center
Mon 07:37:54 PM 30.9683 -91.1069 245° Southwest 406 467 33,900  Descending Houston Center
Mon 07:38:56 PM 30.9128 -91.2406 244° Southwest 408 470 34,000 48 Climbing Houston Center
Mon 07:39:58 PM 30.8658 -91.3600 245° Southwest 405 466 34,000  Level Houston Center
Mon 07:41:01 PM 30.8172 -91.4783 244° Southwest 406 467 34,000  Level Houston Center
Mon 07:42:03 PM 30.7692 -91.5978 245° Southwest 407 468 34,000  Level Houston Center
Mon 07:43:05 PM 30.7203 -91.7169 245° Southwest 408 470 34,000  Level Houston Center
Mon 07:44:07 PM 30.6711 -91.8364 244° Southwest 409 471 34,000  Level Houston Center
Mon 07:45:09 PM 30.6131 -91.9783 245° Southwest 406 467 34,000  Level Houston Center
Mon 07:46:11 PM 30.5633 -92.0975 244° Southwest 409 471 34,000  Level Houston Center
Mon 07:47:13 PM 30.5139 -92.2164 244° Southwest 407 468 34,000  Level Houston Center
Mon 07:48:15 PM 30.4631 -92.3411 245° Southwest 408 470 34,000 -48 Level Houston Center
Mon 07:49:17 PM 30.4128 -92.4608 244° Southwest 411 473 33,900 -48 Descending Houston Center
Mon 07:50:19 PM 30.3631 -92.5803 244° Southwest 412 474 33,900  Level Houston Center
Mon 07:51:22 PM 30.3133 -92.6989 244° Southwest 409 471 33,900 48 Level Houston Center
Mon 07:52:24 PM 30.2625 -92.8194 244° Southwest 415 478 34,000 48 Climbing Houston Center
Mon 07:53:27 PM 30.2008 -92.9644 244° Southwest 417 480 34,000  Level Houston Center
Mon 07:54:28 PM 30.1494 -93.0867 244° Southwest 419 482 34,000  Level Houston Center
Mon 07:55:30 PM 30.0986 -93.2086 244° Southwest 418 481 34,000 -48 Level Houston Center
Mon 07:56:32 PM 30.0478 -93.3308 244° Southwest 420 483 33,900 -48 Descending Houston Center
Mon 07:57:34 PM 29.9969 -93.4542 245° Southwest 421 484 33,900 48 Level Houston Center
Mon 07:58:36 PM 29.9461 -93.5772 245° Southwest 422 486 34,000 48 Climbing Houston Center
Mon 07:59:38 PM 29.8942 -93.7003 244° Southwest 424 488 34,000  Level Houston Center
Mon 08:00:40 PM 29.8425 -93.8225 244° Southwest 423 487 34,000  Level Houston Center
Mon 08:01:42 PM 29.7814 -93.9703 245° Southwest 426 490 34,000  Level Houston Center
Mon 08:02:44 PM 29.7303 -94.0917 244° Southwest 424 488 34,000  Level Houston Center
Mon 08:03:46 PM 29.6764 -94.2172 244° Southwest 423 487 34,000  Level Houston Center
Mon 08:04:48 PM 29.6244 -94.3386 244° Southwest 423 487 34,000  Level Houston Center
Mon 08:05:50 PM 29.5722 -94.4603 244° Southwest 424 488 34,000  Level Houston Center
Mon 08:06:52 PM 29.5197 -94.5828 244° Southwest 426 490 34,000  Level Houston Center
Mon 08:07:54 PM 29.4669 -94.7050 244° Southwest 426 490 34,000  Level Houston Center
Mon 08:08:56 PM 29.4147 -94.8286 244° Southwest 427 491 34,000  Level Houston Center
Mon 08:09:58 PM 29.3497 -94.9758 243° Southwest 428 493 34,000  Level Houston Center
Mon 08:11:00 PM 29.2964 -95.0989 244° Southwest 426 490 34,000  Level Houston Center
Mon 08:12:02 PM 29.2433 -95.2214 244° Southwest 427 491 34,000  Level Houston Center
Mon 08:13:04 PM 29.1903 -95.3425 243° Southwest 425 489 34,000  Level Houston Center
Mon 08:14:06 PM 29.1336 -95.4617 241° Southwest 426 490 34,000  Level Houston Center
Mon 08:15:08 PM 29.0611 -95.5692 232° Southwest 426 490 34,000  Level Houston Center
Mon 08:16:10 PM 28.9881 -95.6758 232° Southwest 426 490 34,000  Level Houston Center
Mon 08:17:12 PM 28.9017 -95.8042 232° Southwest 426 490 34,000  Level Houston Center
Mon 08:18:14 PM 28.8289 -95.9108 232° Southwest 426 490 34,000  Level Houston Center
Mon 08:19:16 PM 28.7575 -96.0183 233° Southwest 425 489 34,000 -49 Level Houston Center
Mon 08:20:17 PM 28.6847 -96.1236 232° Southwest 423 487 33,900 -49 Descending Houston Center
Mon 08:21:19 PM 28.6122 -96.2297 232° Southwest 423 487 33,900 48 Level Houston Center
Mon 08:22:21 PM 28.5383 -96.3369 232° Southwest 427 491 34,000  Climbing Houston Center
Mon 08:23:23 PM 28.4647 -96.4433 232° Southwest 428 493 33,900  Descending Houston Center
Mon 08:24:26 PM 28.3769 -96.5725 232° Southwest 430 495 34,000 48 Climbing Houston Center
Mon 08:25:27 PM 28.3028 -96.6789 232° Southwest 429 494 34,000  Level Houston Center
Mon 08:26:29 PM 28.2244 -96.7903 231° Southwest 428 493 34,000  Level Houston Center
Mon 08:27:31 PM 28.1497 -96.8983 232° Southwest 427 491 34,000  Level Houston Center
Mon 08:28:33 PM 28.0747 -97.0064 232° Southwest 428 493 34,000  Level Houston Center
Mon 08:29:35 PM 27.9992 -97.1142 232° Southwest 429 494 34,000  Level Houston Center
Mon 08:30:37 PM 27.9181 -97.2300 232° Southwest 427 491 34,000  Level Houston Center
Mon 08:31:39 PM 27.8433 -97.3369 232° Southwest 427 491 34,000  Level Houston Center
Mon 08:32:41 PM 27.7681 -97.4433 231° Southwest 426 490 34,000  Level Houston Center
Mon 08:33:43 PM 27.6933 -97.5500 232° Southwest 425 489 34,000  Level Houston Center
Mon 08:34:45 PM 27.6183 -97.6564 232° Southwest 425 489 34,000  Level Houston Center
Mon 08:35:47 PM 27.5506 -97.7528 232° Southwest 422 486 34,000  Level Houston Center
Mon 08:36:49 PM 27.4739 -97.8581 231° Southwest 432 497 34,000  Level Houston Center
Mon 08:37:51 PM 27.3867 -97.9825 232° Southwest 430 495 34,000  Level Houston Center
Mon 08:38:52 PM 27.3122 -98.0867 231° Southwest 422 486 34,000  Level Houston Center
Mon 08:39:54 PM 27.2369 -98.1908 231° Southwest 422 486 34,000  Level Houston Center
Mon 08:40:56 PM 27.1617 -98.2964 231° Southwest 423 487 34,000 -48 Level Houston Center
Mon 08:41:58 PM 27.0881 -98.3978 231° Southwest 424 488 33,900  Descending Houston Center
Mon 08:43:00 PM 27.0136 -98.5017 231° Southwest 425 489 34,000 49 Climbing Houston Center
Mon 08:44:01 PM 26.9381 -98.6061 231° Southwest 428 493 34,000  Level Houston Center
Mon 08:45:03 PM 26.8633 -98.7089 231° Southwest 425 489 34,000 -48 Level Houston Center
Mon 08:46:05 PM 26.7881 -98.8122 231° Southwest 426 490 33,900 -49 Descending Houston Center
Mon 08:47:06 PM 26.6986 -98.9356 231° Southwest 425 489 33,900 49 Level Houston Center
Mon 08:48:08 PM 26.6231 -99.0375 230° Southwest 424 488 34,000 48 Climbing Houston Center
Mon 08:49:10 PM 26.5489 -99.1400 231° Southwest 424 488 34,000  Level Houston Center
Mon 08:51:00 PM 26.4150 -99.3060 228° Southwest  Level FlightAware Approximate
Mon 08:58:00 PM 25.8771 -99.9657 228° Southwest  Level FlightAware Approximate
Mon 08:59:00 PM 25.8000 -100.0595 228° Southwest  Level FlightAware Approximate
Mon 09:00:00 PM 25.7151 -100.1436 217° Southwest  Level FlightAware Approximate
Mon 09:01:00 PM 25.6241 -100.2203 217° Southwest  Level FlightAware Approximate
Mon 09:02:00 PM 25.5330 -100.2969 217° Southwest  Level FlightAware Approximate
Mon 09:03:00 PM 25.4420 -100.3735 218° Southwest  Level FlightAware Approximate
Mon 09:04:00 PM 25.3514 -100.4506 218° Southwest  Level FlightAware Approximate
Mon 09:05:00 PM 25.2607 -100.5276 218° Southwest  Level FlightAware Approximate
Mon 09:06:00 PM 25.1701 -100.6045 218° Southwest  Level FlightAware Approximate
Mon 09:07:00 PM 25.0793 -100.6812 217° Southwest  Level FlightAware Approximate
Mon 09:08:00 PM 24.9886 -100.7579 217° Southwest  Level FlightAware Approximate
Mon 09:09:00 PM 24.8978 -100.8344 217° Southwest  Level FlightAware Approximate
Mon 09:10:00 PM 24.8069 -100.9109 217° Southwest  Level FlightAware Approximate
Mon 09:11:00 PM 24.7173 -100.9889 218° Southwest  Level FlightAware Approximate
Mon 09:12:00 PM 24.6277 -101.0670 218° Southwest  Level FlightAware Approximate
Mon 09:13:00 PM 24.5381 -101.1450 218° Southwest  Level FlightAware Approximate
Mon 09:14:00 PM 24.4484 -101.2229 218° Southwest  Level FlightAware Approximate
Mon 09:15:00 PM 24.3587 -101.3007 218° Southwest  Level FlightAware Approximate
Mon 09:16:00 PM 24.2690 -101.3783 218° Southwest  Level FlightAware Approximate
Mon 09:17:00 PM 24.1792 -101.4559 218° Southwest  Level FlightAware Approximate
Mon 09:18:00 PM 24.0733 -101.5005 198° South  Level FlightAware Approximate
Mon 09:19:00 PM 23.9648 -101.5398 198° South  Level FlightAware Approximate
Mon 09:20:00 PM 23.8537 -101.5799 198° South  Level FlightAware Approximate
Mon 09:21:00 PM 23.7426 -101.6200 198° South  Level FlightAware Approximate
Mon 09:22:00 PM 23.6314 -101.6600 198° South  Level FlightAware Approximate
Mon 09:23:00 PM 23.5200 -101.6989 197° South  Level FlightAware Approximate
Mon 09:24:00 PM 23.4081 -101.7362 197° South  Level FlightAware Approximate
Mon 09:25:00 PM 23.2963 -101.7741 197° South  Level FlightAware Approximate
Mon 09:26:00 PM 23.1847 -101.8123 197° South  Level FlightAware Approximate
Mon 09:27:00 PM 23.0731 -101.8504 197° South  Level FlightAware Approximate
Mon 09:28:00 PM 22.9614 -101.8885 197° South  Level FlightAware Approximate
Mon 09:29:00 PM 22.8498 -101.9265 197° South  Level FlightAware Approximate
Mon 09:30:00 PM 22.7381 -101.9645 197° South  Level FlightAware Approximate
Mon 09:31:00 PM 22.6265 -102.0024 198° South  Level FlightAware Approximate
Mon 09:32:00 PM 22.5152 -102.0417 198° South  Level FlightAware Approximate
Mon 09:33:00 PM 22.4040 -102.0810 198° South  Level FlightAware Approximate
Mon 09:34:00 PM 22.2913 -102.1147 193° South  Level FlightAware Approximate
Mon 09:35:00 PM 22.1793 -102.1514 197° South  Level FlightAware Approximate
Mon 09:36:00 PM 22.0675 -102.1886 197° South  Level FlightAware Approximate
Mon 09:37:00 PM 21.9557 -102.2259 197° South  Level FlightAware Approximate
Mon 09:38:00 PM 21.8445 -102.2651 198° South  Level FlightAware Approximate
Mon 09:39:00 PM 21.7334 -102.3047 198° South  Level FlightAware Approximate
Mon 09:40:00 PM 21.6353 -102.3706 218° Southwest  Level FlightAware Approximate
Mon 09:41:00 PM 21.5428 -102.4477 218° Southwest  Level FlightAware Approximate
Mon 09:42:00 PM 21.4501 -102.5243 217° Southwest  Level FlightAware Approximate
Mon 09:43:00 PM 21.3570 -102.6005 217° Southwest  Level FlightAware Approximate
Mon 09:44:00 PM 21.2640 -102.6767 217° Southwest  Level FlightAware Approximate
Mon 09:45:00 PM 21.1709 -102.7527 217° Southwest  Level FlightAware Approximate
Mon 09:46:00 PM 21.0823 -102.8344 223° Southwest  Level FlightAware Approximate
Mon 09:47:00 PM 20.9941 -102.9165 214° Southwest  Level FlightAware Approximate
Mon 09:48:00 PM 20.8973 -102.9869 214° Southwest  Level FlightAware Approximate
Mon 09:49:00 PM 20.8008 -103.0577 215° Southwest  Level FlightAware Approximate
Mon 09:50:00 PM 20.7117 -103.1383 223° Southwest  Level FlightAware Approximate
Mon 09:51:00 PM 20.6173 -103.2120 215° Southwest  Level FlightAware Approximate
Mon 09:52:00 PM 20.5264 -103.2903 223° Southwest  Level FlightAware Approximate
Mon 09:53:00 PM 20.5167 -103.3167 270° West  Level FlightAware Approximate
Mon 09:54:00 PM 20.5218 -103.3112 270° West  Level Estimated
Mon 09:55:00 PM 20.5218 -103.3112 270° West  Level Estimated
Mon 09:56:00 PM 20.5218 -103.3112 270° West  Level Estimated
Mon 09:57:00 PM 20.5218 -103.3112 270° West  Level Estimated
Mon 09:58:00 PM 20.5218 -103.3112 270° West  Level Estimated
Mon 09:59:00 PM 20.5218 -103.3112 270° West  Level Estimated
Mon 10:00:00 PM 20.5218 -103.3112 270° West  Level Estimated

Login

Don't have an account? Register now (free) for customized features, flight alerts, and more!